Alpine Link — V7SZ7 — position and weather

sailwx.info

Track history (hours):
 
Tides and Currents Weather Stations Pressure Air Temp Water Temp Dewpoint Dewpoint Depression Visibility Wind Speed Wind Dir Waves Ship Positions

Alpine Link

Last reported at 2014-Sep-20 01:10 UTC. Time now 2014-Sep-21 00:07 UTC.
Position N 40°52' E 028°27'.

Length 183 m; draft 11.6 m.

Type: Tanker. MMSI: 538003758.

Date/timePositionNaut miles runAvg speedWind from/ knotsBaromVisibWave heightAir tempDewpointWater temp
2014-Sep-20 01:10N 40°52' E 028°27'812.6
2014-Sep-20 00:32N 40°53' E 028°37'1212.2
2014-Sep-19 23:32N 40°56' E 028°53'27 8.0
2014-Sep-19 20:10N 41°22' E 029°04'4 0.9
2014-Sep-19 16:11N 41°25' E 029°02'  
2014-Sep-17 01:32N 40°60' E 028°60'9 9.2
2014-Sep-17 00:33N 40°51' E 028°55'4 3.0
2014-Sep-16 23:18N 40°48' E 028°52'1 1.5
2014-Sep-16 22:33N 40°48' E 028°50'3 0.4
2014-Sep-16 16:05N 40°47' E 028°47'2 0.9
2014-Sep-16 14:28N 40°47' E 028°49'3 3.5
2014-Sep-16 13:32N 40°46' E 028°53'2 0.9
2014-Sep-16 11:05N 40°48' E 028°55'3 5.0
2014-Sep-16 10:33N 40°50' E 028°56'0 0.1
2014-Sep-16 09:31N 40°50' E 028°56'2 1.9
2014-Sep-16 08:33N 40°50' E 028°54'173 4.3
2014-Sep-14 16:31N 39°27' E 025°34'6512.6
2014-Sep-14 11:19N 38°28' E 024°58'1213.0
2014-Sep-14 10:25N 38°18' E 024°51'2713.0
2014-Sep-14 08:18N 37°53' E 024°37'1012.8
2014-Sep-14 07:33N 37°44' E 024°31'1313.2
2014-Sep-14 06:33N 37°32' E 024°24'1313.3
2014-Sep-14 05:33N 37°21' E 024°15'1413.1
2014-Sep-14 04:30N 37°10' E 024°05'1213.0
2014-Sep-14 03:33N 36°60' E 023°56'1413.4
2014-Sep-14 02:33N 36°49' E 023°46'1313.5
2014-Sep-14 01:33N 36°38' E 023°37'  
Track history (hours):
 
Tides and Currents Weather Stations Pressure Air Temp Water Temp Dewpoint Dewpoint Depression Visibility Wind Speed Wind Dir Waves Ship Positions

Alpine Link

Last reported at 2014-Sep-20 01:10 UTC. Time now 2014-Sep-21 00:07 UTC.
Position N 40°52' E 028°27'.

Length 183 m; draft 11.6 m.

Type: Tanker. MMSI: 538003758.

Date/timePositionNaut miles runAvg speedWind from/ knotsBaromVisibWave heightAir tempDewpointWater temp
2014-Sep-20 01:10N 40°52' E 028°27'812.6
2014-Sep-20 00:32N 40°53' E 028°37'1212.2
2014-Sep-19 23:32N 40°56' E 028°53'27 8.0
2014-Sep-19 20:10N 41°22' E 029°04'4 0.9
2014-Sep-19 16:11N 41°25' E 029°02'  
2014-Sep-17 01:32N 40°60' E 028°60'9 9.2
2014-Sep-17 00:33N 40°51' E 028°55'4 3.0
2014-Sep-16 23:18N 40°48' E 028°52'1 1.5
2014-Sep-16 22:33N 40°48' E 028°50'3 0.4
2014-Sep-16 16:05N 40°47' E 028°47'2 0.9
2014-Sep-16 14:28N 40°47' E 028°49'3 3.5
2014-Sep-16 13:32N 40°46' E 028°53'2 0.9
2014-Sep-16 11:05N 40°48' E 028°55'3 5.0
2014-Sep-16 10:33N 40°50' E 028°56'0 0.1
2014-Sep-16 09:31N 40°50' E 028°56'2 1.9
2014-Sep-16 08:33N 40°50' E 028°54'173 4.3
2014-Sep-14 16:31N 39°27' E 025°34'6512.6
2014-Sep-14 11:19N 38°28' E 024°58'1213.0
2014-Sep-14 10:25N 38°18' E 024°51'2713.0
2014-Sep-14 08:18N 37°53' E 024°37'1012.8
2014-Sep-14 07:33N 37°44' E 024°31'1313.2
2014-Sep-14 06:33N 37°32' E 024°24'1313.3
2014-Sep-14 05:33N 37°21' E 024°15'1413.1
2014-Sep-14 04:30N 37°10' E 024°05'1213.0
2014-Sep-14 03:33N 36°60' E 023°56'1413.4
2014-Sep-14 02:33N 36°49' E 023°46'1313.5
2014-Sep-14 01:33N 36°38' E 023°37'  

Dump ship's entire track history